Relevés horaires Schaffen (Belgique)


Relevés horaires à Schaffen - Mardi 19 Nov. 2019
Heure UTC1 Température [°C] Vent [km/h] Hum. [%] Pres.4 [hPa] Visi. [Km] Nébu. [octa] Préc.5 [mm] Cond.
2m. Res. Ros. Dir.2 Vit. Moy. Raf.3
23:00 0.0 0.0 -0.7 S 3.7 -- 3.7 95 1020.2(0.3/3h) 12 -- -- --
22:00 0.5 0.5 -0.4 NNO 1.9 -- 3.7 94 1020.1(0.5/3h) 15 -- -- --
21:00 0.1 0.1 -0.4 SSE 3.7 -- 5.6 96 1020.2(0.8/3h) 13 -- -- --
20:00 3.0 3.0 -0.6 NNO 3.7 -- 5.6 77 1019.7(0.6/3h) 20 -- -- --
19:00 3.7 3.7 -- SO 3.7 -- 5.6 -- 1019.6(0.7/3h) 20 -- -- --
18:00 4.4 4.4 0.7 SO 3.7 -- 11.1 77 1019.2(0.8/3h) 20 -- -- --
17:00 4.6 4.6 1.1 OSO 3.7 -- 5.6 78 1019(0.8/3h) 20 -- -- --
16:00 5.0 5.0 1.0 OSO 3.7 -- 7.4 75 1018.7(0.7/3h) 20 -- -- --
15:00 7.0 7.0 1.3 OSO 3.7 -- 11.1 67 1018.3(0.3/3h) 20 -- -- --
14:00 7.7 6.9 2.3 OSO 5.6 -- 9.3 69 1018.1(0.1/3h) 20 -- -- --
13:00 7.4 6.6 2.9 SO 5.6 -- 11.1 73 1018(0.0/3h) 18 -- -- --
12:00 7.3 6.5 2.9 O 5.6 -- 13.0 74 1018(0.5/3h) 20 -- -- --
11:00 6.5 5.6 2.8 OSO 5.6 -- 11.1 77 1018(1.1/3h) 20 -- -- --
10:00 5.1 3.4 2.8 OSO 7.4 -- 11.1 85 1018.1(1.6/3h) 20 -- -- --
09:00 3.9 2.6 2.4 OSO 5.6 -- 9.3 90 1017.5(1.5/3h) 20 -- -- --
08:00 3.2 1.8 1.9 OSO 5.6 -- 9.3 91 1016.8(1.2/3h) 20 -- -- --
07:00 2.8 1.3 1.8 OSO 5.6 -- 9.3 93 1016.5(1.3/3h) 20 -- -- --
06:00 3.7 2.4 2.2 SO 5.6 -- 14.8 90 1015.8(1.1/3h) 20 -- 2/12h
NA
05:00 4.4 3.2 2.2 O 5.6 -- 14.8 86 1015.6(1.1/3h) 20 -- -- NA
04:00 4.3 2 2.1 OSO 9.3 -- 13.0 86 1015(0.7/3h) 20 -- -- --
03:00 4.0 2.7 1.7 OSO 5.6 -- 11.1 85 1014.7(0.8/3h) 20 -- -- --
02:00 4.8 3.6 2.3 OSO 5.6 -- 11.1 84 1014.5(1.0/3h) 20 -- -- --
01:00 5.0 3.9 2.9 O 5.6 -- 11.1 86 1014.2(1.4/3h) 20 -- -- --
00:00 5.1 4 3.6 OSO 5.6 -- 14.8 90 1013.7(1.6/3h) 20 -- 2/6h
NA

1 Coordinated Universal Time. Actuellement il est 16:00 locale et 14:00 UTC.

2 Le vent souffle depuis la direction indiquée vers la direction oposée.

3 Les rafales max. sont disponible 40 min après l'heure du relevé.

4 Pour les stations d'altitude (plus de 600m) le géopotentiel du niveau le plus proche de la pression obligatoire est indiqué.

5 Les stations disposant d'un diffuseur peuvent indiquer "trace". Cela signifie que des précipitations ont touchés le sol mais que la quantité est inférieure à 0.1 mm.

Récapitulatif de la journée
Température [°C] Vent [km/h] Ensoleillement4 [h] Precipitations totale5 [mm] Pression [Hpa]
Min1 Max.2 Moy.3 Max. Min Max.
3.7 8.1 0 14.8 0 h 0 min 0 1013.7 1020.2

1 Température minimale relevée entre 18:00 UTC la veille et 18:00 UTC le jour donné.

2 Température maximale relevée entre 06:00 UTC le jour donné et 06:00 UTC le lendemain.

3 Vent moyen de la journée basé sur les relevés horaires.

4 Ensoleillement en heures relevé entre 06:00 UTC la veille et 06:00 UTC le jour donné.

5 Précipitations totales tombées entre 06:00 UTC la jour donné et 06:00 UTC le lendemain.

Graphiques horaires